Time;durP1;ratioP1;P1;durP2;ratioP2;P2;SDS_P1;SDS_P2;PMS_P1;PMS_P2;Temp;Humidity;BMP_temperature;BMP_pressure;BME280_temperature;BME280_humidity;BME280_pressure;Samples;Min_cycle;Max_cycle;Signal;HPM_P1;HPM_P2
2023/07/13 00:02:16;;;;;;;2.53;2.33;;;18.20;99.90;;;;;;5010586;28;20225;-55
2023/07/13 00:04:43;;;;;;;2.73;2.17;;;18.20;99.90;;;;;;5009731;28;20203;-55
2023/07/13 00:07:10;;;;;;;2.07;1.97;;;18.30;99.90;;;;;;5010474;28;20195;-55
2023/07/13 00:09:38;;;;;;;1.97;1.87;;;18.30;99.90;;;;;;5010488;28;20408;-55
2023/07/13 00:12:22;;;;;;;2.43;2.23;;;18.20;99.90;;;;;;5010191;28;20211;-55
2023/07/13 00:14:49;;;;;;;2.53;2.43;;;18.20;99.90;;;;;;5009321;28;20227;-55
2023/07/13 00:17:16;;;;;;;2.70;2.50;;;18.20;99.90;;;;;;5010330;28;20199;-55
2023/07/13 00:19:43;;;;;;;2.43;2.23;;;18.20;99.90;;;;;;5010554;28;20199;-55
2023/07/13 00:22:10;;;;;;;3.23;2.50;;;18.20;99.90;;;;;;5008998;28;20254;-55
2023/07/13 00:24:41;;;;;;;2.00;1.90;;;18.20;99.90;;;;;;5009408;28;20269;-55
2023/07/13 00:27:09;;;;;;;2.97;2.77;;;18.30;99.90;;;;;;5047255;23;20308;-53
2023/07/13 00:29:35;;;;;;;2.50;2.40;;;18.30;99.90;;;;;;5031525;28;20224;-53
2023/07/13 00:32:04;;;;;;;2.83;2.63;;;18.30;99.90;;;;;;5031838;28;20256;-53
2023/07/13 00:34:31;;;;;;;3.70;3.40;;;18.30;99.90;;;;;;5030067;28;20238;-53
2023/07/13 00:36:58;;;;;;;3.20;3.00;;;18.30;99.90;;;;;;5031679;28;20219;-52
2023/07/13 00:39:25;;;;;;;2.53;2.20;;;18.30;99.90;;;;;;5031714;28;20669;-52
2023/07/13 00:41:53;;;;;;;2.70;2.50;;;18.20;99.90;;;;;;5030778;28;20209;-53
2023/07/13 00:44:23;;;;;;;2.00;1.90;;;18.20;99.90;;;;;;5030651;28;20665;-53
2023/07/13 00:46:50;;;;;;;1.93;1.80;;;18.20;99.90;;;;;;5030786;28;20218;-52
2023/07/13 00:49:20;;;;;;;2.80;2.60;;;18.20;99.90;;;;;;5031519;28;20238;-53
2023/07/13 00:51:50;;;;;;;2.47;2.37;;;18.20;99.90;;;;;;5031532;28;20576;-53
2023/07/13 00:54:21;;;;;;;3.83;2.40;;;18.20;99.90;;;;;;5030350;28;20281;-52
2023/07/13 00:56:52;;;;;;;2.53;2.43;;;18.30;99.90;;;;;;5026468;28;20276;-53
2023/07/13 00:59:22;;;;;;;2.43;2.33;;;18.20;99.90;;;;;;5031300;28;20256;-53
2023/07/13 01:01:49;;;;;;;2.93;2.70;;;18.30;99.90;;;;;;5031634;28;20207;-52
2023/07/13 01:04:17;;;;;;;1.77;1.73;;;18.30;99.90;;;;;;5029714;28;20199;-53
2023/07/13 01:06:44;;;;;;;2.27;2.10;;;18.20;99.90;;;;;;5031211;28;20214;-52
2023/07/13 01:09:13;;;;;;;2.73;1.93;;;18.30;99.90;;;;;;5031318;28;20218;-52
2023/07/13 01:11:41;;;;;;;1.60;1.50;;;18.30;99.90;;;;;;5030897;28;20199;-52
2023/07/13 01:14:08;;;;;;;1.77;1.70;;;18.20;99.90;;;;;;5022067;28;20202;-53
2023/07/13 01:16:38;;;;;;;2.77;2.40;;;18.20;99.90;;;;;;5031254;28;20268;-53
2023/07/13 01:19:14;;;;;;;2.23;2.13;;;18.20;99.90;;;;;;5030090;28;20198;-52
2023/07/13 01:21:43;;;;;;;2.60;2.40;;;18.30;99.90;;;;;;5027093;28;20257;-52
2023/07/13 01:24:10;;;;;;;1.90;1.80;;;18.30;99.90;;;;;;5022227;28;20207;-52
2023/07/13 01:26:37;;;;;;;1.90;1.80;;;18.30;99.90;;;;;;5029973;28;20718;-53
2023/07/13 01:29:04;;;;;;;3.17;3.00;;;18.30;99.90;;;;;;5030289;28;20199;-52
2023/07/13 01:31:30;;;;;;;2.30;2.20;;;18.20;99.90;;;;;;5030425;28;20739;-52
2023/07/13 01:33:58;;;;;;;5.10;2.50;;;18.20;99.90;;;;;;5028059;28;20206;-50
2023/07/13 01:36:25;;;;;;;2.60;2.47;;;18.20;99.90;;;;;;5027491;28;20313;-50
2023/07/13 01:38:53;;;;;;;2.00;1.90;;;18.20;99.90;;;;;;5028797;28;20202;-50
2023/07/13 01:41:20;;;;;;;2.43;2.27;;;18.20;99.90;;;;;;5027467;28;20199;-50
2023/07/13 01:43:47;;;;;;;2.30;1.73;;;18.20;99.90;;;;;;5028565;28;20202;-50
2023/07/13 01:46:14;;;;;;;2.67;2.47;;;18.20;99.90;;;;;;5033145;28;20620;-51
2023/07/13 01:48:41;;;;;;;1.97;1.87;;;18.20;99.90;;;;;;5034454;28;20257;-50
2023/07/13 01:51:08;;;;;;;1.80;1.70;;;18.20;99.90;;;;;;5034667;28;20311;-50
2023/07/13 01:53:35;;;;;;;1.53;1.53;;;18.20;99.90;;;;;;5033303;28;20257;-51
2023/07/13 01:56:03;;;;;;;2.10;2.00;;;18.20;99.90;;;;;;5034339;28;20222;-50
2023/07/13 01:58:30;;;;;;;2.37;2.20;;;18.20;99.90;;;;;;5032544;28;20665;-50
2023/07/13 02:00:57;;;;;;;2.43;2.33;;;18.20;99.90;;;;;;5033228;28;20198;-50
2023/07/13 02:03:24;;;;;;;2.43;2.13;;;18.20;99.90;;;;;;5030863;28;20206;-50
2023/07/13 02:05:51;;;;;;;2.47;2.13;;;18.20;99.90;;;;;;5034145;28;20264;-53
2023/07/13 02:08:19;;;;;;;2.63;2.47;;;18.20;99.90;;;;;;5034202;28;20680;-53
2023/07/13 02:10:45;;;;;;;6.57;2.30;;;18.30;99.90;;;;;;5034245;28;20258;-53
2023/07/13 02:13:14;;;;;;;2.00;1.90;;;18.20;99.90;;;;;;5033276;28;20270;-52
2023/07/13 02:15:41;;;;;;;1.60;1.57;;;18.20;99.90;;;;;;5031387;28;20289;-52
2023/07/13 02:18:08;;;;;;;1.87;1.77;;;18.10;99.90;;;;;;5034147;28;20205;-53
2023/07/13 02:20:35;;;;;;;2.33;2.23;;;18.10;99.90;;;;;;5033901;28;20203;-53
2023/07/13 02:23:02;;;;;;;4.10;1.97;;;18.10;99.90;;;;;;5033793;28;20209;-53
2023/07/13 02:25:29;;;;;;;2.10;1.90;;;18.10;99.90;;;;;;5032931;28;20600;-53
2023/07/13 02:27:56;;;;;;;2.00;1.90;;;18.10;99.90;;;;;;5033702;28;20194;-53
2023/07/13 02:30:25;;;;;;;3.10;2.90;;;18.10;99.90;;;;;;5031968;28;20627;-53
2023/07/13 02:32:52;;;;;;;2.77;2.53;;;18.00;99.90;;;;;;5033406;28;20194;-52
2023/07/13 02:35:19;;;;;;;2.17;2.07;;;18.00;99.90;;;;;;5033625;28;20732;-53
2023/07/13 02:37:46;;;;;;;2.03;1.93;;;18.00;99.90;;;;;;5031833;28;20654;-53
2023/07/13 02:40:13;;;;;;;2.63;2.53;;;18.00;99.90;;;;;;5033608;28;20214;-52
2023/07/13 02:42:40;;;;;;;2.33;2.20;;;18.00;99.90;;;;;;5033322;28;20202;-52
2023/07/13 02:45:08;;;;;;;2.43;2.27;;;17.90;99.90;;;;;;5033720;28;20202;-52
2023/07/13 02:47:41;;;;;;;2.40;2.30;;;18.00;99.90;;;;;;5031809;28;20229;-53
2023/07/13 02:50:09;;;;;;;2.47;2.27;;;17.90;99.90;;;;;;5029937;28;20269;-52
2023/07/13 02:52:36;;;;;;;2.67;2.47;;;17.90;99.90;;;;;;5033197;28;20198;-52
2023/07/13 02:55:03;;;;;;;2.43;2.33;;;17.80;99.90;;;;;;5033205;28;20769;-53
2023/07/13 02:57:31;;;;;;;2.63;2.43;;;17.80;99.90;;;;;;5032573;28;20769;-52
2023/07/13 02:59:58;;;;;;;3.83;3.63;;;17.80;99.90;;;;;;5033505;28;20206;-53
2023/07/13 03:02:27;;;;;;;4.07;2.97;;;17.90;99.90;;;;;;5031988;28;20765;-53
2023/07/13 03:04:56;;;;;;;3.83;2.53;;;17.90;99.90;;;;;;5028640;28;20202;-52
2023/07/13 03:07:23;;;;;;;5.97;3.57;;;18.00;99.90;;;;;;5028747;28;20773;-52
2023/07/13 03:09:50;;;;;;;2.70;2.60;;;17.90;99.90;;;;;;5032927;28;20568;-50
2023/07/13 03:12:17;;;;;;;2.67;2.53;;;17.90;99.90;;;;;;5030569;28;20195;-50
2023/07/13 03:14:44;;;;;;;3.50;3.27;;;17.90;99.90;;;;;;5030599;28;20238;-50
2023/07/13 03:17:10;;;;;;;3.07;2.87;;;17.90;99.90;;;;;;5032700;28;20245;-50
2023/07/13 03:19:37;;;;;;;2.90;2.70;;;17.90;99.90;;;;;;5033002;28;20198;-50
2023/07/13 03:22:06;;;;;;;3.87;2.70;;;17.90;99.90;;;;;;5028507;28;20203;-50
2023/07/13 03:24:34;;;;;;;2.60;1.97;;;17.90;99.90;;;;;;5031287;28;20253;-50
2023/07/13 03:27:02;;;;;;;3.03;2.33;;;17.90;99.90;;;;;;5032591;28;20261;-50
2023/07/13 03:29:29;;;;;;;2.83;2.73;;;18.00;99.90;;;;;;5030883;28;20218;-50
2023/07/13 03:31:56;;;;;;;3.00;2.80;;;17.90;99.90;;;;;;5032537;28;20273;-50
2023/07/13 03:34:23;;;;;;;2.80;2.60;;;17.90;99.90;;;;;;5032386;28;20580;-50
2023/07/13 03:36:50;;;;;;;5.10;3.33;;;17.90;99.90;;;;;;5032428;28;20280;-50
2023/07/13 03:39:18;;;;;;;3.23;2.93;;;18.00;99.90;;;;;;5032524;28;20206;-50
2023/07/13 03:41:45;;;;;;;2.90;2.63;;;17.90;99.90;;;;;;5031738;28;20199;-50
2023/07/13 03:44:13;;;;;;;7.10;2.87;;;17.90;99.90;;;;;;5026421;28;20268;-50
2023/07/13 03:46:40;;;;;;;3.00;2.73;;;18.00;99.90;;;;;;5028710;28;20635;-49
2023/07/13 03:49:07;;;;;;;2.50;2.37;;;17.90;99.90;;;;;;5031007;28;20194;-50
2023/07/13 03:51:34;;;;;;;3.50;3.20;;;17.90;99.90;;;;;;5027928;28;20258;-50
2023/07/13 03:54:02;;;;;;;2.77;2.57;;;17.90;99.90;;;;;;5028998;28;20259;-50
2023/07/13 03:56:32;;;;;;;2.13;2.03;;;17.90;99.90;;;;;;5027156;28;20229;-50
2023/07/13 03:58:59;;;;;;;3.13;2.93;;;18.00;99.90;;;;;;5031730;28;20657;-50
2023/07/13 04:01:27;;;;;;;3.63;3.07;;;17.90;99.90;;;;;;5034354;28;20248;-50
2023/07/13 04:03:54;;;;;;;3.53;3.23;;;17.90;99.90;;;;;;5030506;28;20226;-50
2023/07/13 04:06:24;;;;;;;3.50;3.30;;;17.90;99.90;;;;;;5026602;28;20280;-50
2023/07/13 04:08:54;;;;;;;8.67;3.17;;;17.90;99.90;;;;;;5018702;28;20202;-50
2023/07/13 04:11:23;;;;;;;3.03;2.90;;;17.90;99.90;;;;;;5011291;28;20211;-50
2023/07/13 04:13:52;;;;;;;3.83;3.53;;;17.90;99.90;;;;;;5025313;28;20230;-50
2023/07/13 04:16:20;;;;;;;5.33;4.00;;;17.90;99.90;;;;;;5030585;28;20264;-50
2023/07/13 04:18:48;;;;;;;2.97;2.77;;;17.80;99.90;;;;;;5030399;28;20201;-49
2023/07/13 04:21:16;;;;;;;4.13;3.83;;;17.70;99.90;;;;;;5030431;28;20680;-51
2023/07/13 04:23:43;;;;;;;5.03;4.53;;;17.70;99.90;;;;;;5030078;28;20230;-49
2023/07/13 04:26:10;;;;;;;7.83;4.20;;;17.80;99.90;;;;;;5030258;28;20222;-50
2023/07/13 04:28:37;;;;;;;3.57;3.37;;;17.80;99.90;;;;;;5030427;28;20210;-51
2023/07/13 04:31:06;;;;;;;3.93;3.70;;;17.90;99.90;;;;;;5023951;28;20758;-50
2023/07/13 04:33:33;;;;;;;3.50;3.07;;;17.90;99.90;;;;;;5029767;28;20254;-50
2023/07/13 04:36:01;;;;;;;4.60;3.30;;;17.90;99.90;;;;;;5030264;28;20220;-50
2023/07/13 04:38:30;;;;;;;6.20;3.30;;;17.90;99.90;;;;;;5030114;28;20202;-50
2023/07/13 04:40:59;;;;;;;3.33;3.23;;;17.90;99.90;;;;;;5030613;28;20187;-49
2023/07/13 04:43:26;;;;;;;3.43;3.13;;;18.00;99.90;;;;;;5030021;28;20707;-49
2023/07/13 04:45:53;;;;;;;4.00;3.70;;;18.00;99.90;;;;;;5028568;28;20227;-49
2023/07/13 04:48:23;;;;;;;3.47;3.27;;;18.10;99.90;;;;;;5029840;28;20252;-53
2023/07/13 04:50:55;;;;;;;3.50;3.30;;;18.10;99.90;;;;;;5032416;28;20246;-49
2023/07/13 04:53:22;;;;;;;3.23;2.93;;;18.10;99.90;;;;;;5028529;28;20750;-51
2023/07/13 04:55:49;;;;;;;3.67;3.47;;;18.10;99.90;;;;;;5029709;28;20222;-49
2023/07/13 04:58:16;;;;;;;4.03;3.23;;;18.10;99.90;;;;;;5030303;28;20199;-51
2023/07/13 05:00:43;;;;;;;3.43;3.10;;;18.10;99.90;;;;;;5030146;28;20206;-50
2023/07/13 05:03:10;;;;;;;4.37;3.50;;;18.20;99.90;;;;;;5022757;28;20226;-50
2023/07/13 05:05:39;;;;;;;3.87;3.57;;;18.10;99.90;;;;;;5011507;28;20215;-50
2023/07/13 05:08:07;;;;;;;4.97;4.47;;;18.20;99.90;;;;;;5012891;28;20195;-50
2023/07/13 05:10:34;;;;;;;4.33;3.97;;;18.20;99.90;;;;;;5029706;28;20803;-50
2023/07/13 05:13:01;;;;;;;4.23;3.93;;;18.20;99.90;;;;;;5029687;28;20199;-51
2023/07/13 05:15:28;;;;;;;4.20;3.90;;;18.20;99.90;;;;;;5029877;28;20268;-50
2023/07/13 05:17:55;;;;;;;4.83;4.43;;;18.20;99.90;;;;;;5029850;28;20190;-50
2023/07/13 05:20:22;;;;;;;3.53;3.43;;;18.20;99.90;;;;;;5027818;28;20203;-49
2023/07/13 05:22:50;;;;;;;4.37;3.97;;;18.30;99.90;;;;;;5026737;28;20199;-49
2023/07/13 05:25:17;;;;;;;4.10;3.90;;;18.30;99.90;;;;;;5030232;28;20198;-50
2023/07/13 05:27:46;;;;;;;5.13;4.43;;;18.30;99.90;;;;;;5033835;28;20225;-50
2023/07/13 05:30:14;;;;;;;6.20;4.97;;;18.30;99.90;;;;;;5032428;28;20198;-50
2023/07/13 05:32:41;;;;;;;5.27;4.17;;;18.40;99.90;;;;;;5032705;28;20205;-51
2023/07/13 05:35:09;;;;;;;5.10;4.70;;;18.40;99.90;;;;;;5032740;28;20665;-51
2023/07/13 05:37:36;;;;;;;4.37;4.10;;;18.40;99.90;;;;;;5027290;28;20203;-51
2023/07/13 05:40:05;;;;;;;4.77;4.27;;;18.40;99.90;;;;;;5014827;28;20261;-50
2023/07/13 05:42:32;;;;;;;4.93;4.23;;;18.50;99.90;;;;;;5032504;28;20234;-51
2023/07/13 05:44:59;;;;;;;4.53;4.23;;;18.50;99.90;;;;;;5033736;28;20203;-50
2023/07/13 05:47:26;;;;;;;4.83;4.23;;;18.50;99.90;;;;;;5033797;28;20619;-50
2023/07/13 05:49:53;;;;;;;3.70;3.40;;;18.50;99.90;;;;;;5032653;28;20587;-51
2023/07/13 05:52:19;;;;;;;4.30;3.97;;;18.50;99.90;;;;;;5029797;28;20297;-49
2023/07/13 05:54:46;;;;;;;4.10;3.80;;;18.50;99.90;;;;;;5030054;28;20241;-50
2023/07/13 05:57:15;;;;;;;4.87;4.13;;;18.50;99.90;;;;;;5028611;28;20631;-50
2023/07/13 05:59:42;;;;;;;5.30;4.93;;;18.50;99.90;;;;;;5027453;28;20199;-50
2023/07/13 06:02:10;;;;;;;4.57;4.37;;;18.50;99.90;;;;;;5026058;28;20726;-49
2023/07/13 06:04:38;;;;;;;3.60;3.40;;;18.50;99.90;;;;;;5027456;28;20672;-50
2023/07/13 06:07:05;;;;;;;3.50;3.27;;;18.50;99.90;;;;;;5024312;28;20296;-50
2023/07/13 06:09:32;;;;;;;4.67;4.37;;;18.50;99.90;;;;;;5017403;28;20203;-50
2023/07/13 06:11:59;;;;;;;4.60;4.30;;;18.50;99.90;;;;;;5024565;28;20746;-50
2023/07/13 06:14:28;;;;;;;4.70;4.40;;;18.50;99.90;;;;;;5029351;28;20194;-50
2023/07/13 06:16:55;;;;;;;5.87;4.97;;;18.50;99.90;;;;;;5027947;28;20290;-50
2023/07/13 06:19:22;;;;;;;4.10;3.77;;;18.60;99.90;;;;;;5030029;28;20203;-50
2023/07/13 06:21:49;;;;;;;3.97;3.60;;;18.60;99.90;;;;;;5031403;28;20252;-50
2023/07/13 06:24:16;;;;;;;3.60;3.30;;;18.60;99.90;;;;;;5030442;28;20199;-50
2023/07/13 06:26:43;;;;;;;6.53;3.70;;;18.60;99.90;;;;;;5029175;28;20234;-50
2023/07/13 06:29:09;;;;;;;7.03;4.57;;;18.60;99.90;;;;;;5032514;28;20680;-51
2023/07/13 06:31:38;;;;;;;3.40;3.20;;;18.50;99.90;;;;;;5029871;28;20250;-50
2023/07/13 06:34:05;;;;;;;5.00;3.60;;;18.50;99.90;;;;;;5031594;28;20281;-50
2023/07/13 06:36:32;;;;;;;4.47;4.07;;;18.50;99.90;;;;;;5063564;23;20233;-56
2023/07/13 06:38:59;;;;;;;4.60;4.27;;;18.50;99.90;;;;;;5052126;28;20209;-55
2023/07/13 06:41:26;;;;;;;5.37;4.17;;;18.60;99.90;;;;;;5051367;28;20548;-56
2023/07/13 06:43:53;;;;;;;5.37;4.90;;;18.60;99.90;;;;;;5061737;28;20200;-55
2023/07/13 06:46:21;;;;;;;5.83;5.00;;;18.60;99.90;;;;;;5055713;28;20270;-55
2023/07/13 06:48:50;;;;;;;5.43;5.03;;;18.60;99.90;;;;;;5052111;28;20206;-55
2023/07/13 06:51:17;;;;;;;5.57;4.53;;;18.50;99.90;;;;;;5050605;28;20270;-55
2023/07/13 06:53:44;;;;;;;6.83;4.43;;;18.60;99.90;;;;;;5051463;28;20201;-55
2023/07/13 06:56:11;;;;;;;4.53;4.13;;;18.60;99.90;;;;;;5062899;28;20718;-55
2023/07/13 06:58:38;;;;;;;5.10;4.70;;;18.60;99.90;;;;;;5059723;28;20266;-56
2023/07/13 07:01:06;;;;;;;5.27;4.70;;;18.50;99.90;;;;;;5071421;28;20671;-55
2023/07/13 07:03:33;;;;;;;4.50;4.20;;;18.50;99.90;;;;;;5067822;28;20288;-54
2023/07/13 07:06:08;;;;;;;4.87;4.57;;;18.50;99.90;;;;;;5062676;28;20656;-55
2023/07/13 07:08:35;;;;;;;5.77;5.37;;;18.50;99.90;;;;;;5054350;28;20247;-55
2023/07/13 07:11:02;;;;;;;5.50;5.20;;;18.50;99.90;;;;;;5054484;28;20196;-56
2023/07/13 07:13:30;;;;;;;6.37;5.77;;;18.50;99.90;;;;;;5070760;28;20617;-55
2023/07/13 07:15:57;;;;;;;7.73;5.60;;;18.50;99.90;;;;;;5059129;28;20241;-55
2023/07/13 07:18:23;;;;;;;5.80;5.50;;;18.50;99.90;;;;;;5031168;28;20256;-55
2023/07/13 07:20:50;;;;;;;6.40;6.00;;;18.50;99.90;;;;;;5050841;28;20202;-56
2023/07/13 07:23:19;;;;;;;5.27;4.93;;;18.50;99.90;;;;;;5054820;28;20193;-55
2023/07/13 07:25:46;;;;;;;5.43;5.03;;;18.60;99.90;;;;;;5056390;28;20238;-55
2023/07/13 07:28:17;;;;;;;5.87;5.47;;;18.70;99.90;;;;;;5050510;28;20605;-55
2023/07/13 07:30:44;;;;;;;6.10;5.60;;;18.80;99.90;;;;;;5040031;28;20297;-56
2023/07/13 07:33:11;;;;;;;5.73;5.23;;;18.90;99.90;;;;;;5051090;28;20268;-55
2023/07/13 07:35:38;;;;;;;6.18;5.68;;;18.90;99.90;;;;;;5047859;28;20969;-55
2023/07/13 07:38:06;;;;;;;5.17;4.87;;;18.90;99.90;;;;;;5047707;28;20198;-56
2023/07/13 07:40:37;;;;;;;6.03;5.60;;;19.00;99.90;;;;;;5050511;28;20617;-56
2023/07/13 07:43:05;;;;;;;5.73;5.33;;;19.00;99.90;;;;;;5043250;28;20308;-55
2023/07/13 07:45:31;;;;;;;5.40;5.00;;;19.00;99.90;;;;;;5050569;28;20288;-55
2023/07/13 07:47:59;;;;;;;4.90;4.60;;;19.00;99.90;;;;;;5049897;28;20194;-55
2023/07/13 07:50:26;;;;;;;10.27;5.83;;;19.00;99.90;;;;;;5047740;28;20671;-56
2023/07/13 07:52:53;;;;;;;4.80;4.30;;;18.90;99.90;;;;;;5049619;28;20214;-60
2023/07/13 07:55:20;;;;;;;4.87;4.57;;;19.00;99.90;;;;;;5046935;28;20707;-63
2023/07/13 07:57:49;;;;;;;4.83;4.47;;;18.90;99.90;;;;;;5049921;28;20672;-62
2023/07/13 08:00:16;;;;;;;4.70;4.40;;;18.90;99.90;;;;;;5048861;28;20198;-56
2023/07/13 08:02:45;;;;;;;6.13;5.33;;;18.90;99.90;;;;;;5048366;28;20209;-68
2023/07/13 08:05:12;;;;;;;5.53;4.90;;;18.90;99.90;;;;;;5047993;28;20263;-68
2023/07/13 08:07:42;;;;;;;5.27;4.87;;;18.80;99.90;;;;;;5041766;28;20198;-69
2023/07/13 08:10:09;;;;;;;4.80;4.07;;;18.90;99.90;;;;;;5038040;28;20209;-67
2023/07/13 08:12:40;;;;;;;6.40;4.60;;;18.90;99.90;;;;;;5038610;28;20213;-68
2023/07/13 08:15:12;;;;;;;5.33;4.87;;;19.00;99.90;;;;;;5040674;28;20876;-67
2023/07/13 08:17:40;;;;;;;6.10;5.27;;;19.10;99.90;;;;;;5036758;28;20218;-65
2023/07/13 08:20:09;;;;;;;6.07;5.47;;;19.20;99.90;;;;;;5037904;28;20295;-67
2023/07/13 08:22:38;;;;;;;5.77;5.37;;;19.30;99.90;;;;;;5044097;28;20252;-69
2023/07/13 08:25:06;;;;;;;4.73;4.50;;;19.30;99.90;;;;;;5040195;28;20611;-66
2023/07/13 08:27:34;;;;;;;5.70;5.30;;;19.40;99.90;;;;;;5046408;28;20201;-66
2023/07/13 08:30:01;;;;;;;5.57;5.03;;;19.70;99.90;;;;;;5040745;28;20316;-69
2023/07/13 08:32:30;;;;;;;4.60;4.30;;;20.40;99.90;;;;;;5037847;28;20431;-67
2023/07/13 08:34:57;;;;;;;4.13;3.80;;;21.60;99.90;;;;;;5039151;28;20535;-67
2023/07/13 08:37:23;;;;;;;4.13;3.47;;;23.00;99.90;;;;;;5039160;28;20738;-68
2023/07/13 08:39:51;;;;;;;2.87;2.73;;;23.90;99.90;;;;;;5038961;28;20753;-57
2023/07/13 08:42:32;;;;;;;2.77;2.60;;;24.40;99.90;;;;;;5047304;28;20221;-56
2023/07/13 08:45:10;;;;;;;2.30;2.20;;;24.40;99.90;;;;;;5037819;28;20733;-63
2023/07/13 08:47:46;;;;;;;2.80;2.70;;;24.20;99.90;;;;;;5039702;28;20197;-64
2023/07/13 08:50:17;;;;;;;2.77;2.67;;;24.60;99.90;;;;;;5035321;28;20391;-63
2023/07/13 08:52:45;;;;;;;3.33;2.93;;;25.40;99.90;;;;;;5037446;28;20218;-62
2023/07/13 08:55:16;;;;;;;2.73;2.53;;;25.40;99.90;;;;;;5046703;28;20665;-60
2023/07/13 08:57:47;;;;;;;3.60;2.83;;;26.00;99.90;;;;;;5049275;28;20201;-61
2023/07/13 09:00:15;;;;;;;2.60;2.50;;;26.50;99.90;;;;;;5043648;28;20255;-60
2023/07/13 09:02:47;;;;;;;3.10;2.83;;;26.30;99.90;;;;;;5052538;28;20236;-61
2023/07/13 09:05:18;;;;;;;2.63;2.53;;;26.00;99.90;;;;;;5052093;28;20641;-61
2023/07/13 09:08:03;;;;;;;2.90;2.80;;;25.00;99.90;;;;;;5048922;28;20639;-63
2023/07/13 09:10:33;;;;;;;3.40;3.20;;;24.90;99.90;;;;;;5046402;28;20206;-61
2023/07/13 09:13:20;;;;;;;2.60;2.40;;;24.80;99.90;;;;;;5050502;28;20222;-61
2023/07/13 09:15:49;;;;;;;3.20;2.60;;;24.30;99.90;;;;;;5050077;28;20225;-62
2023/07/13 09:18:25;;;;;;;3.07;2.87;;;24.00;99.90;;;;;;5048142;28;20319;-63
2023/07/13 09:20:55;;;;;;;2.73;2.53;;;23.20;99.90;;;;;;5052003;28;20296;-64
2023/07/13 09:23:23;;;;;;;4.27;2.77;;;23.10;99.90;;;;;;5048775;28;20617;-64
2023/07/13 09:25:55;;;;;;;2.13;1.83;;;23.20;99.90;;;;;;5052073;28;20717;-62
2023/07/13 09:28:26;;;;;;;3.30;3.00;;;23.30;99.90;;;;;;5048273;28;20232;-65
2023/07/13 09:30:59;;;;;;;2.73;2.53;;;23.30;99.90;;;;;;5048810;28;20260;-65
2023/07/13 09:33:29;;;;;;;3.67;2.57;;;23.20;99.90;;;;;;5052856;28;20295;-59
2023/07/13 09:35:57;;;;;;;2.53;2.43;;;23.60;99.90;;;;;;5049307;28;20701;-62
2023/07/13 09:38:26;;;;;;;5.07;2.50;;;23.50;99.90;;;;;;5050010;28;20198;-63
2023/07/13 09:41:08;;;;;;;2.60;2.30;;;23.40;99.90;;;;;;5048959;28;20206;-64
2023/07/13 09:43:36;;;;;;;2.70;2.50;;;23.50;99.90;;;;;;5049218;28;20201;-66
2023/07/13 09:46:04;;;;;;;7.73;2.60;;;23.60;99.90;;;;;;5045322;28;20699;-64
2023/07/13 09:48:37;;;;;;;2.00;1.90;;;23.70;99.90;;;;;;5048256;28;20288;-66
2023/07/13 09:51:15;;;;;;;2.80;2.53;;;23.60;99.90;;;;;;5049386;28;20194;-66
2023/07/13 09:53:44;;;;;;;2.37;2.20;;;23.80;99.90;;;;;;5041852;28;20309;-64
2023/07/13 09:56:21;;;;;;;2.20;2.07;;;23.70;99.90;;;;;;5032706;28;20222;-64
2023/07/13 09:58:48;;;;;;;3.63;3.33;;;23.90;99.90;;;;;;5045844;28;20655;-65
2023/07/13 10:01:15;;;;;;;4.83;3.63;;;24.10;99.90;;;;;;5052111;28;20194;-62
2023/07/13 10:03:54;;;;;;;5.00;3.03;;;24.20;99.90;;;;;;5052621;28;20190;-66
2023/07/13 10:06:23;;;;;;;3.47;2.73;;;24.70;99.90;;;;;;5052891;28;20267;-65
2023/07/13 10:08:52;;;;;;;3.23;2.90;;;25.00;99.90;;;;;;5049652;28;20264;-62
2023/07/13 10:11:22;;;;;;;2.93;2.83;;;25.80;99.90;;;;;;5049409;28;20221;-62
2023/07/13 10:13:53;;;;;;;3.33;2.63;;;26.10;99.90;;;;;;5047448;28;20233;-62
2023/07/13 10:16:21;;;;;;;3.37;3.17;;;25.80;99.90;;;;;;5048387;28;20252;-62
2023/07/13 10:18:52;;;;;;;3.17;2.97;;;25.50;99.90;;;;;;5048717;28;20206;-69
2023/07/13 10:21:21;;;;;;;3.50;2.37;;;25.00;99.90;;;;;;5052368;28;20271;-67
2023/07/13 10:23:53;;;;;;;3.90;3.37;;;24.70;99.90;;;;;;5050863;28;20252;-71
2023/07/13 10:26:24;;;;;;;2.33;2.13;;;24.30;99.90;;;;;;5051190;28;20233;-56
2023/07/13 10:28:55;;;;;;;3.67;3.07;;;24.20;99.90;;;;;;5042544;28;20259;-56
2023/07/13 10:31:23;;;;;;;2.20;2.10;;;24.00;99.90;;;;;;5041698;28;20199;-56
2023/07/13 10:33:51;;;;;;;3.60;2.50;;;24.10;99.90;;;;;;5050365;28;20237;-62
2023/07/13 10:36:28;;;;;;;2.30;2.20;;;24.20;99.90;;;;;;5044793;28;20699;-62
2023/07/13 10:38:58;;;;;;;2.57;2.37;;;24.30;99.90;;;;;;5044851;28;20197;-62
2023/07/13 10:41:27;;;;;;;2.63;1.97;;;24.50;99.90;;;;;;5039076;28;20295;-62
2023/07/13 10:43:57;;;;;;;1.93;1.80;;;24.30;99.90;;;;;;5035954;28;20625;-64
2023/07/13 10:46:28;;;;;;;3.03;2.00;;;24.20;99.90;;;;;;5040368;28;20217;-64
2023/07/13 10:48:59;;;;;;;2.07;1.97;;;24.30;99.90;;;;;;5040196;28;20241;-56
2023/07/13 10:51:27;;;;;;;2.13;2.03;;;24.20;99.90;;;;;;5039577;28;20230;-55
2023/07/13 10:54:18;;;;;;;4.57;1.87;;;24.30;99.90;;;;;;5047074;28;20352;-55
2023/07/13 10:56:46;;;;;;;1.43;1.43;;;24.10;99.90;;;;;;5046238;28;20300;-55
2023/07/13 10:59:17;;;;;;;1.60;1.50;;;24.20;99.90;;;;;;5036151;28;20190;-56
2023/07/13 11:01:54;;;;;;;2.17;1.97;;;24.00;99.90;;;;;;5035216;28;20272;-56
2023/07/13 11:04:23;;;;;;;1.53;1.37;;;24.00;99.90;;;;;;5031019;28;20198;-65
2023/07/13 11:06:56;;;;;;;1.83;1.50;;;24.40;99.90;;;;;;5030625;28;20222;-56
2023/07/13 11:09:37;;;;;;;3.60;2.00;;;24.40;99.90;;;;;;5030511;28;20210;-56
2023/07/13 11:12:13;;;;;;;1.83;1.73;;;24.50;99.90;;;;;;5033631;28;20542;-56
2023/07/13 11:14:44;;;;;;;2.47;2.30;;;24.60;99.90;;;;;;5032745;28;20206;-56
2023/07/13 11:17:40;;;;;;;2.77;2.13;;;24.50;99.90;;;;;;5035937;28;20291;-56
2023/07/13 11:20:23;;;;;;;2.33;2.10;;;24.40;99.90;;;;;;5049300;28;20198;-56
2023/07/13 11:22:52;;;;;;;3.50;1.93;;;24.10;99.90;;;;;;5036629;28;20393;-56
2023/07/13 11:25:28;;;;;;;1.47;1.47;;;23.60;99.90;;;;;;5049002;28;20233;-56
2023/07/13 11:28:17;;;;;;;1.97;1.87;;;23.70;99.90;;;;;;5048681;28;20276;-55
2023/07/13 11:30:47;;;;;;;1.63;1.53;;;23.80;99.90;;;;;;5038198;28;20683;-55
2023/07/13 11:33:17;;;;;;;1.60;1.50;;;23.90;99.90;;;;;;5029917;28;20569;-56
2023/07/13 11:35:51;;;;;;;1.60;1.40;;;23.70;99.90;;;;;;5044579;28;20221;-55
2023/07/13 11:38:21;;;;;;;1.83;1.77;;;23.60;99.90;;;;;;5039431;28;20205;-55
2023/07/13 11:40:51;;;;;;;1.83;1.70;;;23.80;99.90;;;;;;5039498;28;20258;-56
2023/07/13 11:43:18;;;;;;;2.40;1.80;;;24.20;99.90;;;;;;5038280;28;20247;-56
2023/07/13 11:45:45;;;;;;;2.00;1.70;;;24.60;99.90;;;;;;5038142;28;20248;-56
2023/07/13 11:48:27;;;;;;;1.70;1.60;;;24.80;99.90;;;;;;5041716;28;20256;-55
2023/07/13 11:50:59;;;;;;;2.73;1.30;;;24.90;99.90;;;;;;5038209;28;20656;-55
2023/07/13 11:53:30;;;;;;;1.73;1.67;;;24.90;99.90;;;;;;5037746;28;20303;-55
2023/07/13 11:55:58;;;;;;;3.43;1.53;;;24.70;99.90;;;;;;5041003;28;20270;-55
2023/07/13 11:58:28;;;;;;;2.27;2.07;;;24.60;99.90;;;;;;5032811;28;20209;-55
2023/07/13 12:00:58;;;;;;;2.00;1.90;;;24.70;99.90;;;;;;5033593;28;20198;-56
2023/07/13 12:03:26;;;;;;;1.73;1.63;;;24.70;99.90;;;;;;5039705;28;20197;-55
2023/07/13 12:06:02;;;;;;;1.30;1.30;;;24.50;99.90;;;;;;5036381;28;20283;-55
2023/07/13 12:08:30;;;;;;;1.70;1.60;;;24.50;99.90;;;;;;5038817;28;20281;-56
2023/07/13 12:11:04;;;;;;;1.80;1.47;;;24.50;99.90;;;;;;5045169;28;20204;-56
2023/07/13 12:13:37;;;;;;;1.50;1.40;;;24.50;99.90;;;;;;5034136;28;20299;-56
2023/07/13 12:16:15;;;;;;;1.60;1.50;;;24.60;99.90;;;;;;5044630;28;20706;-56
2023/07/13 12:18:45;;;;;;;1.67;1.57;;;24.60;99.90;;;;;;5048469;28;20194;-56
2023/07/13 12:21:19;;;;;;;1.30;1.20;;;24.40;99.90;;;;;;5032962;28;20198;-56
2023/07/13 12:23:50;;;;;;;3.03;2.17;;;24.40;99.90;;;;;;5042763;28;20253;-55
2023/07/13 12:26:18;;;;;;;1.43;1.20;;;24.40;99.90;;;;;;5043761;28;20373;-55
2023/07/13 12:28:47;;;;;;;2.97;1.73;;;24.70;99.90;;;;;;5038487;28;20225;-56
2023/07/13 12:31:27;;;;;;;2.57;1.20;;;24.60;99.90;;;;;;5046235;28;20807;-55
2023/07/13 12:34:02;;;;;;;1.93;1.80;;;24.70;99.90;;;;;;5047772;28;20283;-56
2023/07/13 12:36:34;;;;;;;1.90;1.80;;;24.50;99.90;;;;;;5047599;28;20264;-56
2023/07/13 12:39:13;;;;;;;2.23;1.20;;;24.60;99.90;;;;;;5048246;28;20742;-56
2023/07/13 12:41:40;;;;;;;1.93;1.23;;;24.30;99.90;;;;;;5049791;28;20251;-56
2023/07/13 12:44:12;;;;;;;0.80;0.80;;;24.30;99.90;;;;;;5048991;28;20248;-56
2023/07/13 12:46:39;;;;;;;1.60;1.47;;;24.40;99.90;;;;;;5049059;28;20230;-55
2023/07/13 12:49:08;;;;;;;1.63;1.53;;;24.40;99.90;;;;;;5047879;28;20244;-55
2023/07/13 12:51:39;;;;;;;1.40;1.30;;;24.20;99.90;;;;;;5049950;23;20231;-52
2023/07/13 12:54:17;;;;;;;1.77;1.43;;;24.20;99.90;;;;;;5010709;28;20246;-53
2023/07/13 12:56:45;;;;;;;1.27;1.27;;;24.20;99.90;;;;;;5004083;28;20261;-52
2023/07/13 12:59:19;;;;;;;1.83;1.73;;;24.30;99.90;;;;;;5001426;28;20199;-53